Ocean Falls, Canada
Current Conditions -  °F | °C
As of 8:00 AM on Thursday 27 Nov 2014 (Local Time) from CYBD Reporting Station
Light Snow Light Snow  
Wind Chill: 30°   Ceiling: 46000
Heat Index: 34°   Visibility: 2.5mi
Dew Point: 32°   Wind: 5mph
Humidity: 93%   Direction: 90°E
Pressure: 29.65"   Gusts: NA
Location:  52.35°N, 127.7°W
Report Text: CYBD 271600Z 09004KT 030V140 2 1/2SM -SN VV460 01/00 A2965 RMK SN8 EQPT VC RWY SLP043
Loading
Personal Weather Stations






























Interactive Weather Map New forecast layout! Learn more

10-Day Weather Forecast

Advertisements
Track Severe Weather on mobile